createdAt,value
2023-04-20T00:00:39.355Z,7.18
2023-04-20T00:03:22.132Z,7.11
2023-04-20T00:05:51.682Z,7.04
2023-04-20T00:08:21.679Z,6.99
2023-04-20T00:10:51.646Z,6.89
2023-04-20T00:13:22.335Z,6.83
2023-04-20T00:15:53.698Z,6.77
2023-04-20T00:18:23.852Z,6.72
2023-04-20T00:20:54.107Z,6.68
2023-04-20T00:23:23.817Z,6.65
2023-04-20T00:25:53.381Z,6.64
2023-04-20T00:28:23.749Z,6.67
2023-04-20T00:30:53.405Z,6.70
2023-04-20T00:33:22.939Z,6.76
2023-04-20T00:35:53.344Z,6.81
2023-04-20T00:38:24.865Z,6.86
2023-04-20T00:40:56.255Z,6.92
2023-04-20T00:43:26.666Z,6.96
2023-04-20T00:45:56.533Z,6.97
2023-04-20T00:48:26.045Z,6.92
2023-04-20T00:50:56.333Z,6.86
2023-04-20T00:53:25.613Z,6.78
2023-04-20T00:55:55.805Z,6.71
2023-04-20T00:58:25.915Z,6.67
2023-04-20T01:00:55.150Z,6.64
2023-04-20T01:03:25.511Z,6.57
2023-04-20T01:05:55.712Z,6.52
2023-04-20T01:08:29.495Z,6.46
2023-04-20T01:11:01.923Z,6.39
2023-04-20T01:13:31.465Z,6.30
2023-04-20T01:16:01.598Z,6.22
2023-04-20T01:18:48.822Z,6.17
2023-04-20T01:21:22.680Z,6.05
2023-04-20T01:23:52.382Z,5.97
2023-04-20T01:26:25.760Z,5.92
2023-04-20T01:28:56.552Z,5.87
2023-04-20T01:31:26.383Z,5.79
2023-04-20T01:33:55.982Z,5.72
2023-04-20T01:36:27.705Z,5.67
2023-04-20T01:38:58.454Z,5.64
2023-04-20T01:41:27.398Z,5.65
2023-04-20T01:43:59.475Z,5.66
2023-04-20T01:46:29.159Z,5.60
2023-04-20T01:48:58.282Z,5.53
2023-04-20T01:51:28.736Z,5.44
2023-04-20T01:53:58.287Z,5.37
2023-04-20T01:56:30.445Z,5.34
2023-04-20T01:59:01.400Z,5.32
2023-04-20T02:01:30.997Z,5.33
2023-04-20T02:04:03.632Z,5.34
2023-04-20T02:06:34.057Z,5.34
2023-04-20T02:09:04.946Z,5.35
2023-04-20T02:11:40.287Z,5.34
2023-04-20T02:14:09.914Z,5.30
2023-04-20T02:16:39.729Z,5.25
2023-04-20T02:19:10.490Z,5.19
2023-04-20T02:21:40.405Z,5.14
2023-04-20T02:24:10.293Z,5.11
2023-04-20T02:26:39.844Z,5.08
2023-04-20T02:29:11.118Z,5.05
2023-04-20T02:31:40.854Z,5.01
2023-04-20T02:34:11.141Z,4.97
2023-04-20T02:36:41.529Z,4.90
2023-04-20T02:39:16.340Z,4.85
2023-04-20T02:41:46.256Z,4.85
2023-04-20T02:44:16.047Z,4.89
2023-04-20T02:46:45.471Z,4.88
2023-04-20T02:49:14.535Z,4.84
2023-04-20T02:51:46.067Z,4.77
2023-04-20T02:54:15.837Z,4.74
2023-04-20T02:56:46.334Z,4.77
2023-04-20T02:59:17.718Z,4.78
2023-04-20T03:01:55.980Z,4.81
2023-04-20T03:04:28.206Z,4.82
2023-04-20T03:07:23.585Z,4.83
2023-04-20T03:09:54.477Z,4.83
2023-04-20T03:12:36.993Z,4.83
2023-04-20T03:15:31.587Z,4.92
2023-04-20T03:18:05.705Z,5.01
2023-04-20T03:20:35.124Z,5.07
2023-04-20T03:23:04.583Z,5.06
2023-04-20T03:25:34.841Z,5.02
2023-04-20T03:28:27.653Z,4.97
2023-04-20T03:30:57.722Z,4.94
2023-04-20T03:33:28.662Z,4.95
2023-04-20T03:35:57.730Z,4.97
2023-04-20T03:38:27.752Z,5.00
2023-04-20T03:40:57.810Z,5.04
2023-04-20T03:43:26.753Z,5.06
2023-04-20T03:45:57.791Z,5.06
2023-04-20T03:48:28.600Z,5.06
2023-04-20T03:50:59.516Z,5.02
2023-04-20T03:53:29.410Z,4.97
2023-04-20T03:56:00.024Z,4.94
2023-04-20T03:58:29.934Z,4.91
2023-04-20T04:01:39.648Z,4.84
2023-04-20T04:04:09.785Z,4.83
2023-04-20T04:06:40.112Z,4.81
2023-04-20T04:09:10.450Z,4.80
2023-04-20T04:11:40.944Z,4.85
2023-04-20T04:14:11.453Z,4.92
2023-04-20T04:16:44.663Z,5.03
2023-04-20T04:19:14.908Z,5.10
2023-04-20T04:21:44.740Z,5.15
2023-04-20T04:24:17.843Z,5.22
2023-04-20T04:27:16.218Z,5.29
2023-04-20T04:29:55.046Z,5.44
2023-04-20T04:32:27.001Z,5.53
2023-04-20T04:34:56.724Z,5.57
2023-04-20T04:37:28.414Z,5.67
2023-04-20T04:39:58.548Z,5.78
2023-04-20T04:42:37.228Z,5.92
2023-04-20T04:45:11.795Z,6.10
2023-04-20T04:47:44.184Z,6.27
2023-04-20T04:50:14.267Z,6.42
2023-04-20T04:52:43.466Z,6.56
2023-04-20T04:55:13.866Z,6.67
2023-04-20T04:57:45.001Z,6.78
2023-04-20T05:00:16.508Z,6.87
2023-04-20T05:02:46.063Z,6.97
2023-04-20T05:05:15.986Z,7.04
2023-04-20T05:07:46.021Z,7.14
2023-04-20T05:10:16.369Z,7.24
2023-04-20T05:12:49.202Z,7.33
2023-04-20T05:15:19.432Z,7.43
2023-04-20T05:17:50.659Z,7.54
2023-04-20T05:20:21.846Z,7.66
2023-04-20T05:22:51.837Z,7.79
2023-04-20T05:25:21.606Z,7.92
2023-04-20T05:27:51.811Z,8.04
2023-04-20T05:30:22.123Z,8.16
2023-04-20T05:32:52.821Z,8.30
2023-04-20T05:35:22.800Z,8.45
2023-04-20T05:37:52.515Z,8.57
2023-04-20T05:40:22.580Z,8.70
2023-04-20T05:42:52.097Z,8.81
2023-04-20T05:45:21.487Z,8.92
2023-04-20T05:47:56.939Z,9.03
2023-04-20T05:50:27.575Z,9.14
2023-04-20T05:52:59.018Z,9.21
2023-04-20T05:55:29.146Z,9.31
2023-04-20T05:57:58.670Z,9.40
2023-04-20T06:00:27.623Z,9.50
2023-04-20T06:02:57.494Z,9.61
2023-04-20T06:05:27.784Z,9.72
2023-04-20T06:07:57.092Z,9.85
2023-04-20T06:10:26.272Z,10.00
2023-04-20T06:12:55.548Z,10.10
2023-04-20T06:15:24.729Z,10.20
2023-04-20T06:17:56.037Z,10.31
2023-04-20T06:20:25.355Z,10.43
2023-04-20T06:22:55.878Z,10.55
2023-04-20T06:25:26.041Z,10.71
2023-04-20T06:27:55.741Z,10.88
2023-04-20T06:30:26.193Z,10.99
2023-04-20T06:32:57.158Z,11.14
2023-04-20T06:35:27.311Z,11.30
2023-04-20T06:37:58.147Z,11.40
2023-04-20T06:40:30.096Z,11.50
2023-04-20T06:42:59.890Z,11.64
2023-04-20T06:45:29.379Z,11.84
2023-04-20T06:47:59.237Z,12.00
2023-04-20T06:50:28.587Z,12.12
2023-04-20T06:52:58.182Z,12.27
2023-04-20T06:55:27.856Z,12.46
2023-04-20T06:57:57.241Z,12.64
2023-04-20T07:00:28.669Z,12.84
2023-04-20T07:02:58.952Z,13.09
2023-04-20T07:05:29.250Z,13.34
2023-04-20T07:07:59.748Z,13.52
2023-04-20T07:10:29.726Z,13.70
2023-04-20T07:12:59.716Z,13.93
2023-04-20T07:15:30.637Z,14.14
2023-04-20T07:18:01.095Z,14.34
2023-04-20T07:20:31.154Z,14.46
2023-04-20T07:23:02.039Z,14.39
2023-04-20T07:25:33.502Z,14.49
2023-04-20T07:28:03.640Z,14.67
2023-04-20T07:30:32.989Z,14.87
2023-04-20T07:33:03.852Z,15.08
2023-04-20T07:35:33.908Z,15.29
2023-04-20T07:38:07.070Z,15.47
2023-04-20T07:40:39.101Z,15.68
2023-04-20T07:43:09.103Z,15.83
2023-04-20T07:45:42.929Z,16.00
2023-04-20T07:48:12.857Z,16.13
2023-04-20T07:50:42.865Z,16.23
2023-04-20T07:53:13.221Z,16.40
2023-04-20T07:55:42.717Z,16.57
2023-04-20T07:58:14.439Z,16.71
2023-04-20T08:00:47.941Z,16.86
2023-04-20T08:03:17.525Z,17.01
2023-04-20T08:05:48.455Z,17.13
2023-04-20T08:08:18.294Z,17.20
2023-04-20T08:10:47.402Z,17.29
2023-04-20T08:13:17.971Z,17.43
2023-04-20T08:15:48.115Z,17.57
2023-04-20T08:18:18.362Z,17.69
2023-04-20T08:20:49.127Z,17.75
2023-04-20T08:23:18.624Z,17.86
2023-04-20T08:25:48.633Z,18.03
2023-04-20T08:28:32.496Z,18.18
2023-04-20T08:31:05.092Z,18.20
2023-04-20T08:33:35.005Z,18.20
2023-04-20T08:36:04.081Z,18.35
2023-04-20T08:38:34.363Z,18.46
2023-04-20T08:41:04.073Z,18.50
2023-04-20T08:43:33.252Z,18.67
2023-04-20T08:46:04.716Z,18.75
2023-04-20T08:48:38.567Z,18.95
2023-04-20T08:51:08.609Z,19.15
2023-04-20T08:53:38.399Z,19.31
2023-04-20T08:56:08.851Z,19.49
2023-04-20T08:58:44.295Z,19.71
2023-04-20T09:01:17.606Z,19.81
2023-04-20T09:03:52.752Z,19.62
2023-04-20T09:06:23.496Z,19.35
2023-04-20T09:08:55.009Z,19.19
2023-04-20T09:11:26.350Z,19.17
2023-04-20T09:14:10.568Z,18.98
2023-04-20T09:16:54.241Z,18.86
2023-04-20T09:19:26.635Z,18.71
2023-04-20T09:21:57.980Z,19.00
2023-04-20T09:24:38.907Z,19.21
2023-04-20T09:27:19.372Z,19.48
2023-04-20T09:29:59.628Z,19.75
2023-04-20T09:32:36.019Z,19.91
2023-04-20T09:35:07.840Z,19.85
2023-04-20T09:37:49.412Z,20.00
2023-04-20T09:40:21.265Z,20.36
2023-04-20T09:42:51.698Z,20.67
2023-04-20T09:45:23.169Z,20.97
2023-04-20T09:47:54.400Z,21.13
2023-04-20T09:50:32.046Z,21.20
2023-04-20T09:53:09.775Z,21.20
2023-04-20T09:55:38.576Z,21.22
2023-04-20T09:58:08.560Z,21.18
2023-04-20T10:00:37.632Z,21.23
2023-04-20T10:03:09.929Z,21.15
2023-04-20T10:05:40.224Z,20.96
2023-04-20T10:08:09.298Z,20.72
2023-04-20T10:10:50.420Z,20.59
2023-04-20T10:13:22.297Z,20.61
2023-04-20T10:15:52.498Z,20.68
2023-04-20T10:18:25.186Z,20.83
2023-04-20T10:21:10.022Z,20.94
2023-04-20T10:23:52.822Z,20.99
2023-04-20T10:26:23.627Z,21.07
2023-04-20T10:28:53.445Z,21.07
2023-04-20T10:31:22.925Z,20.95
2023-04-20T10:33:55.539Z,20.57
2023-04-20T10:36:31.924Z,20.33
2023-04-20T10:39:05.714Z,19.97
2023-04-20T10:41:35.765Z,19.77
2023-04-20T10:44:09.181Z,19.55
2023-04-20T10:46:38.538Z,19.41
2023-04-20T10:49:09.618Z,19.33
2023-04-20T10:51:50.079Z,19.33
2023-04-20T10:54:20.641Z,19.33
2023-04-20T10:56:53.207Z,19.34
2023-04-20T10:59:25.525Z,19.32
2023-04-20T11:02:00.134Z,19.26
2023-04-20T11:04:33.993Z,19.25
2023-04-20T11:07:10.733Z,19.26
2023-04-20T11:09:40.611Z,19.32
2023-04-20T11:12:15.054Z,19.40
2023-04-20T11:14:56.219Z,19.53
2023-04-20T11:17:39.832Z,19.68
2023-04-20T11:20:17.722Z,19.62
2023-04-20T11:23:00.283Z,19.51
2023-04-20T11:25:29.548Z,19.48
2023-04-20T11:28:11.746Z,19.50
2023-04-20T11:30:42.532Z,19.45
2023-04-20T11:33:14.437Z,19.40
2023-04-20T11:35:44.737Z,19.33
2023-04-20T11:38:14.008Z,19.35
2023-04-20T11:40:43.936Z,19.49
2023-04-20T11:43:12.846Z,19.62
2023-04-20T11:45:42.671Z,19.69
2023-04-20T11:48:11.848Z,19.66
2023-04-20T11:50:42.668Z,19.72
2023-04-20T11:53:15.372Z,19.76
2023-04-20T11:55:44.974Z,19.86
2023-04-20T11:58:14.019Z,19.97
2023-04-20T12:00:43.906Z,20.09
2023-04-20T12:03:13.262Z,20.21
2023-04-20T12:05:43.558Z,20.36
2023-04-20T12:08:13.815Z,20.33
2023-04-20T12:10:43.661Z,20.17
2023-04-20T12:13:12.747Z,19.96
2023-04-20T12:15:42.284Z,19.87
2023-04-20T12:18:12.064Z,19.80
2023-04-20T12:20:42.142Z,19.59
2023-04-20T12:23:11.600Z,19.48
2023-04-20T12:25:40.651Z,19.32
2023-04-20T12:28:09.655Z,19.16
2023-04-20T12:30:39.924Z,18.97
2023-04-20T12:33:09.309Z,18.75
2023-04-20T12:35:39.518Z,18.61
2023-04-20T12:38:08.621Z,18.51
2023-04-20T12:40:38.169Z,18.43
2023-04-20T12:43:07.105Z,18.36
2023-04-20T12:45:36.832Z,18.21
2023-04-20T12:48:06.988Z,18.21
2023-04-20T12:50:36.359Z,18.22
2023-04-20T12:53:06.322Z,18.17
2023-04-20T12:55:37.570Z,18.15
2023-04-20T12:58:07.489Z,18.18
2023-04-20T13:00:37.434Z,18.18
2023-04-20T13:03:07.390Z,18.12
2023-04-20T13:05:37.018Z,18.08
2023-04-20T13:08:06.506Z,18.07
2023-04-20T13:10:39.960Z,18.09
2023-04-20T13:13:11.684Z,18.18
2023-04-20T13:15:41.738Z,18.23
2023-04-20T13:18:14.207Z,18.37
2023-04-20T13:20:44.930Z,18.48
2023-04-20T13:23:15.442Z,18.62
2023-04-20T13:25:46.487Z,18.83
2023-04-20T13:28:15.936Z,18.88
2023-04-20T13:30:45.824Z,18.81
2023-04-20T13:33:15.387Z,18.75
2023-04-20T13:35:46.670Z,18.71
2023-04-20T13:38:16.820Z,18.76
2023-04-20T13:40:48.789Z,18.84
2023-04-20T13:43:20.111Z,18.91
2023-04-20T13:45:50.943Z,18.93
2023-04-20T13:48:22.082Z,18.85
2023-04-20T13:50:52.020Z,18.72
2023-04-20T13:53:22.392Z,18.67
2023-04-20T13:55:51.954Z,18.59
2023-04-20T13:58:21.653Z,18.58
2023-04-20T14:00:51.116Z,18.62
2023-04-20T14:03:21.638Z,18.55
2023-04-20T14:05:51.753Z,18.47
2023-04-20T14:08:23.843Z,18.42
2023-04-20T14:10:54.057Z,18.37
2023-04-20T14:13:24.282Z,18.34
2023-04-20T14:15:57.804Z,18.28
2023-04-20T14:18:27.794Z,18.27
2023-04-20T14:20:58.052Z,18.25
2023-04-20T14:23:27.299Z,18.26
2023-04-20T14:25:57.131Z,18.22
2023-04-20T14:28:26.445Z,18.22
2023-04-20T14:30:56.442Z,18.11
2023-04-20T14:33:26.629Z,18.07
2023-04-20T14:35:56.216Z,18.05
2023-04-20T14:38:25.977Z,18.06
2023-04-20T14:40:55.797Z,18.12
2023-04-20T14:43:25.559Z,18.19
2023-04-20T14:45:55.748Z,18.23
2023-04-20T14:48:25.477Z,18.28
2023-04-20T14:50:54.921Z,18.33
2023-04-20T14:53:24.976Z,18.37
2023-04-20T14:55:56.014Z,18.35
2023-04-20T14:58:25.976Z,18.30
2023-04-20T15:00:55.694Z,18.26
2023-04-20T15:03:24.808Z,18.26
2023-04-20T15:06:02.024Z,18.25
2023-04-20T15:08:31.248Z,18.25
2023-04-20T15:11:02.502Z,18.27
2023-04-20T15:13:41.673Z,18.22
2023-04-20T15:16:11.305Z,18.21
2023-04-20T15:18:41.099Z,18.19
2023-04-20T15:21:11.252Z,18.17
2023-04-20T15:23:40.679Z,18.19
2023-04-20T15:26:10.024Z,18.18
2023-04-20T15:28:39.127Z,18.09
2023-04-20T15:31:09.010Z,18.01
2023-04-20T15:33:38.686Z,17.95
2023-04-20T15:36:08.785Z,17.92
2023-04-20T15:38:38.511Z,17.94
2023-04-20T15:41:08.125Z,17.93
2023-04-20T15:43:37.204Z,17.87
2023-04-20T15:46:06.680Z,17.81
2023-04-20T15:48:36.837Z,17.79
2023-04-20T15:51:06.223Z,17.77
2023-04-20T15:53:35.661Z,17.73
2023-04-20T15:56:05.241Z,17.71
2023-04-20T15:58:35.141Z,17.67
2023-04-20T16:01:05.463Z,17.63
2023-04-20T16:03:34.982Z,17.59
2023-04-20T16:06:04.757Z,17.54
2023-04-20T16:08:34.630Z,17.55
2023-04-20T16:11:04.903Z,17.59
2023-04-20T16:13:37.013Z,17.58
2023-04-20T16:16:06.789Z,17.61
2023-04-20T16:18:36.350Z,17.63
2023-04-20T16:21:06.784Z,17.62
2023-04-20T16:23:36.216Z,17.54
2023-04-20T16:26:06.057Z,17.46
2023-04-20T16:28:35.460Z,17.40
2023-04-20T16:31:06.225Z,17.33
2023-04-20T16:33:37.182Z,17.25
2023-04-20T16:36:07.056Z,17.11
2023-04-20T16:38:35.974Z,16.97
2023-04-20T16:41:04.983Z,16.85
2023-04-20T16:43:34.718Z,16.72
2023-04-20T16:46:13.590Z,16.61
2023-04-20T16:48:43.190Z,16.56
2023-04-20T16:51:13.993Z,16.49
2023-04-20T16:53:45.684Z,16.42
2023-04-20T16:56:15.896Z,16.36
2023-04-20T16:58:45.839Z,16.29
2023-04-20T17:01:15.960Z,16.20
2023-04-20T17:03:45.518Z,16.13
2023-04-20T17:06:14.905Z,16.06
2023-04-20T17:08:44.351Z,15.99
2023-04-20T17:11:16.224Z,15.94
2023-04-20T17:13:45.575Z,15.89
2023-04-20T17:16:14.810Z,15.84
2023-04-20T17:18:44.428Z,15.78
2023-04-20T17:21:14.371Z,15.74
2023-04-20T17:23:43.679Z,15.71
2023-04-20T17:26:13.408Z,15.67
2023-04-20T17:28:44.919Z,15.62
2023-04-20T17:31:14.688Z,15.58
2023-04-20T17:33:45.409Z,15.52
2023-04-20T17:36:15.202Z,15.48
2023-04-20T17:38:44.679Z,15.43
2023-04-20T17:41:14.276Z,15.37
2023-04-20T17:43:43.796Z,15.32
2023-04-20T17:46:14.017Z,15.31
2023-04-20T17:48:43.263Z,15.29
2023-04-20T17:51:15.817Z,15.25
2023-04-20T17:53:48.405Z,15.19
2023-04-20T17:56:17.498Z,15.15
2023-04-20T17:58:47.054Z,15.11
2023-04-20T18:01:16.514Z,15.09
2023-04-20T18:03:48.892Z,15.07
2023-04-20T18:06:21.806Z,15.03
2023-04-20T18:08:51.518Z,15.00
2023-04-20T18:11:20.645Z,14.98
2023-04-20T18:13:50.525Z,14.96
2023-04-20T18:16:19.616Z,14.93
2023-04-20T18:18:52.193Z,14.90
2023-04-20T18:21:22.499Z,14.88
2023-04-20T18:23:52.720Z,14.86
2023-04-20T18:26:24.285Z,14.84
2023-04-20T18:28:55.795Z,14.79
2023-04-20T18:31:25.682Z,14.75
2023-04-20T18:33:55.359Z,14.71
2023-04-20T18:36:24.841Z,14.66
2023-04-20T18:38:56.024Z,14.63
2023-04-20T18:41:26.520Z,14.57
2023-04-20T18:43:57.419Z,14.52
2023-04-20T18:46:27.454Z,14.46
2023-04-20T18:48:58.078Z,14.39
2023-04-20T18:51:29.128Z,14.33
2023-04-20T18:53:58.887Z,14.27
2023-04-20T18:56:31.666Z,14.20
2023-04-20T18:59:02.047Z,14.15
2023-04-20T19:01:33.506Z,14.09
2023-04-20T19:04:03.968Z,14.03
2023-04-20T19:06:36.135Z,13.98
2023-04-20T19:09:08.030Z,13.92
2023-04-20T19:11:37.496Z,13.88
2023-04-20T19:14:07.195Z,13.83
2023-04-20T19:16:37.302Z,13.79
2023-04-20T19:19:07.009Z,13.73
2023-04-20T19:21:36.714Z,13.69
2023-04-20T19:24:06.854Z,13.64
2023-04-20T19:26:36.149Z,13.59
2023-04-20T19:29:06.048Z,13.55
2023-04-20T19:31:40.614Z,13.51
2023-04-20T19:34:13.683Z,13.46
2023-04-20T19:36:44.745Z,13.37
2023-04-20T19:39:14.865Z,13.30
2023-04-20T19:41:44.865Z,13.20
2023-04-20T19:44:15.129Z,13.10
2023-04-20T19:46:44.823Z,12.99
2023-04-20T19:49:13.714Z,12.87
2023-04-20T19:51:43.511Z,12.76
2023-04-20T19:54:17.070Z,12.65
2023-04-20T19:56:46.371Z,12.56
2023-04-20T19:59:16.300Z,12.47
2023-04-20T20:01:46.105Z,12.42
2023-04-20T20:04:15.909Z,12.31
2023-04-20T20:06:49.290Z,12.21
2023-04-20T20:09:21.582Z,12.13
2023-04-20T20:11:52.629Z,12.06
2023-04-20T20:14:22.155Z,12.00
2023-04-20T20:16:52.133Z,11.99
2023-04-20T20:19:22.256Z,11.98
2023-04-20T20:21:52.179Z,11.90
2023-04-20T20:24:23.563Z,11.85
2023-04-20T20:26:52.937Z,11.78
2023-04-20T20:29:23.318Z,11.75
2023-04-20T20:31:53.813Z,11.69
2023-04-20T20:34:23.965Z,11.58
2023-04-20T20:36:54.358Z,11.55
2023-04-20T20:39:24.781Z,11.56
2023-04-20T20:41:53.998Z,11.52
2023-04-20T20:44:23.685Z,11.43
2023-04-20T20:46:52.979Z,11.38
2023-04-20T20:49:23.204Z,11.37
2023-04-20T20:51:52.882Z,11.37
2023-04-20T20:54:22.342Z,11.39
2023-04-20T20:56:51.889Z,11.30
2023-04-20T20:59:22.499Z,11.24
2023-04-20T21:01:51.879Z,11.23
2023-04-20T21:04:21.115Z,11.22
2023-04-20T21:06:50.973Z,11.21
2023-04-20T21:09:20.695Z,11.18
2023-04-20T21:11:50.346Z,11.14
2023-04-20T21:14:19.424Z,11.13
2023-04-20T21:16:48.428Z,11.13
2023-04-20T21:19:18.597Z,11.13
2023-04-20T21:21:48.381Z,11.13
2023-04-20T21:24:17.515Z,11.10
2023-04-20T21:26:46.565Z,11.05
2023-04-20T21:29:17.185Z,11.05
2023-04-20T21:31:47.554Z,11.01
2023-04-20T21:34:18.386Z,10.95
2023-04-20T21:36:48.019Z,10.88
2023-04-20T21:39:18.035Z,10.84
2023-04-20T21:41:48.169Z,10.80
2023-04-20T21:44:17.575Z,10.77
2023-04-20T21:46:47.054Z,10.75
2023-04-20T21:49:17.743Z,10.73
2023-04-20T21:51:47.855Z,10.71
2023-04-20T21:54:17.728Z,10.66
2023-04-20T21:56:47.440Z,10.59
2023-04-20T21:59:17.911Z,10.54
2023-04-20T22:01:47.357Z,10.49
2023-04-20T22:04:17.635Z,10.42
2023-04-20T22:06:47.441Z,10.36
2023-04-20T22:09:18.563Z,10.29
2023-04-20T22:11:50.333Z,10.24
2023-04-20T22:14:20.341Z,10.18
2023-04-20T22:16:49.804Z,10.13
2023-04-20T22:19:19.523Z,10.08
2023-04-20T22:21:49.341Z,10.02
2023-04-20T22:24:19.223Z,9.96
2023-04-20T22:26:49.411Z,9.85
2023-04-20T22:29:18.638Z,9.76
2023-04-20T22:31:49.467Z,9.65
2023-04-20T22:34:18.522Z,9.58
2023-04-20T22:36:49.124Z,9.49
2023-04-20T22:39:18.789Z,9.41
2023-04-20T22:41:48.518Z,9.33
2023-04-20T22:44:18.033Z,9.24
2023-04-20T22:46:47.283Z,9.14
2023-04-20T22:49:17.347Z,9.09
2023-04-20T22:51:46.737Z,9.02
2023-04-20T22:54:16.569Z,8.94
2023-04-20T22:56:45.649Z,8.88
2023-04-20T22:59:16.653Z,8.81
2023-04-20T23:01:46.169Z,8.74
2023-04-20T23:04:16.070Z,8.69
2023-04-20T23:06:45.752Z,8.63
2023-04-20T23:09:17.799Z,8.55
2023-04-20T23:11:47.742Z,8.49
2023-04-20T23:14:17.231Z,8.43
2023-04-20T23:16:47.925Z,8.37
2023-04-20T23:19:18.262Z,8.31
2023-04-20T23:21:47.844Z,8.25
2023-04-20T23:24:18.268Z,8.17
2023-04-20T23:26:47.921Z,8.11
2023-04-20T23:29:17.667Z,8.05
2023-04-20T23:31:47.347Z,7.99
2023-04-20T23:34:17.655Z,7.91
2023-04-20T23:36:47.565Z,7.85
2023-04-20T23:39:17.930Z,7.80
2023-04-20T23:41:48.545Z,7.72
2023-04-20T23:44:17.851Z,7.66
2023-04-20T23:46:47.954Z,7.57
2023-04-20T23:49:17.663Z,7.54
2023-04-20T23:51:50.038Z,7.51
2023-04-20T23:54:19.594Z,7.50
2023-04-20T23:56:49.652Z,7.47
2023-04-20T23:59:19.351Z,7.47
